Time;durP1;ratioP1;P1;durP2;ratioP2;P2;SDS_P1;SDS_P2;PMS_P1;PMS_P2;Temp;Humidity;BMP_temperature;BMP_pressure;BME280_temperature;BME280_humidity;BME280_pressure;Samples;Min_cycle;Max_cycle;Signal;HPM_P1;HPM_P2
2022/09/04 00:01:59;;;;;;;;;;;21.20;82.60;;;;;;5100267;28;20336;-55
2022/09/04 00:04:25;;;;;;;;;;;21.20;82.60;;;;;;5100433;28;19908;-56
2022/09/04 00:07:09;;;;;;;;;;;21.20;82.70;;;;;;5100195;28;19908;-55
2022/09/04 00:09:40;;;;;;;;;;;21.20;82.70;;;;;;5100507;28;19923;-53
2022/09/04 00:12:09;;;;;;;;;;;21.20;82.70;;;;;;5100076;28;19973;-55
2022/09/04 00:14:54;;;;;;;;;;;21.20;82.70;;;;;;5100439;28;19908;-51
2022/09/04 00:17:39;;;;;;;;;;;21.20;82.70;;;;;;5099114;28;19908;-52
2022/09/04 00:20:14;;;;;;;;;;;21.20;82.70;;;;;;5100280;28;19908;-55
2022/09/04 00:22:55;;;;;;;;;;;21.20;82.60;;;;;;5095478;28;19912;-56
2022/09/04 00:25:24;;;;;;;;;;;21.20;82.60;;;;;;5097158;28;19951;-53
2022/09/04 00:27:52;;;;;;;;;;;21.20;82.60;;;;;;5096902;28;19916;-55
2022/09/04 00:30:19;;;;;;;;;;;21.20;82.60;;;;;;5096975;28;20270;-53
2022/09/04 00:32:50;;;;;;;;;;;21.20;82.60;;;;;;5096648;28;20007;-54
2022/09/04 00:35:16;;;;;;;;;;;21.20;82.60;;;;;;5096627;28;19915;-55
2022/09/04 00:37:47;;;;;;;;;;;21.20;82.70;;;;;;5096581;28;20278;-51
2022/09/04 00:40:23;;;;;;;;;;;21.20;82.70;;;;;;5096498;28;19916;-51
2022/09/04 00:43:09;;;;;;;;;;;21.20;82.60;;;;;;5096460;28;20286;-56
2022/09/04 00:45:34;;;;;;;;;;;21.20;82.60;;;;;;5095965;28;19931;-53
2022/09/04 00:48:16;;;;;;;;;;;21.20;82.60;;;;;;5096435;28;19912;-56
2022/09/04 00:50:53;;;;;;;;;;;21.20;82.70;;;;;;5096191;28;19912;-52
2022/09/04 00:53:38;;;;;;;;;;;21.20;82.70;;;;;;5096851;28;19918;-53
2022/09/04 00:56:14;;;;;;;;;;;21.20;82.70;;;;;;5095187;28;19908;-54
2022/09/04 00:58:58;;;;;;;;;;;21.20;82.70;;;;;;5095184;28;20272;-56
2022/09/04 01:01:25;;;;;;;;;;;21.20;83.20;;;;;;5095831;28;20359;-54
2022/09/04 01:03:58;;;;;;;;;;;21.20;82.70;;;;;;5096758;28;19938;-52
2022/09/04 01:06:28;;;;;;;;;;;21.20;82.70;;;;;;5096307;28;19909;-53
2022/09/04 01:08:58;;;;;;;;;;;21.20;82.70;;;;;;5096278;28;20391;-54
2022/09/04 01:11:42;;;;;;;;;;;21.10;82.60;;;;;;5096161;28;20347;-54
2022/09/04 01:14:14;;;;;;;;;;;21.10;82.70;;;;;;5094522;28;19912;-55
2022/09/04 01:16:46;;;;;;;;;;;21.20;82.80;;;;;;5096070;28;19909;-54
2022/09/04 01:19:23;;;;;;;;;;;21.10;82.70;;;;;;5096043;28;20315;-56
2022/09/04 01:21:55;;;;;;;;;;;21.20;82.70;;;;;;5095654;28;19947;-52
2022/09/04 01:24:33;;;;;;;;;;;21.20;82.70;;;;;;5095672;28;19961;-55
2022/09/04 01:27:04;;;;;;;;;;;21.20;82.70;;;;;;5095710;28;19931;-52
2022/09/04 01:29:48;;;;;;;;;;;21.10;82.70;;;;;;5094438;28;20392;-55
2022/09/04 01:32:32;;;;;;;;;;;21.10;82.70;;;;;;5095797;28;19913;-51
2022/09/04 01:35:12;;;;;;;;;;;21.20;82.70;;;;;;5095052;28;20003;-54
2022/09/04 01:37:41;;;;;;;;;;;21.20;82.70;;;;;;5095412;28;20413;-55
2022/09/04 01:40:07;;;;;;;;;;;21.20;82.70;;;;;;5095645;28;19908;-53
2022/09/04 01:42:39;;;;;;;;;;;21.10;82.70;;;;;;5095547;28;20011;-54
2022/09/04 01:45:05;;;;;;;;;;;21.10;82.60;;;;;;5095602;28;20006;-55
2022/09/04 01:47:45;;;;;;;;;;;21.10;83.20;;;;;;5094195;28;20357;-54
2022/09/04 01:50:33;;;;;;;;;;;21.10;82.70;;;;;;5095125;28;19912;-55
2022/09/04 01:53:05;;;;;;;;;;;21.10;82.70;;;;;;5095209;28;19908;-53
2022/09/04 01:55:35;;;;;;;;;;;21.20;82.80;;;;;;5095600;28;19923;-54
2022/09/04 01:58:12;;;;;;;;;;;21.20;82.70;;;;;;5095261;28;19955;-55
2022/09/04 02:00:46;;;;;;;;;;;21.10;82.70;;;;;;5094989;28;20436;-55
2022/09/04 02:03:27;;;;;;;;;;;21.10;82.70;;;;;;5095081;28;20321;-56
2022/09/04 02:06:11;;;;;;;;;;;21.10;82.70;;;;;;5093899;28;19908;-54
2022/09/04 02:08:57;;;;;;;;;;;21.20;82.70;;;;;;5094721;28;19916;-53
2022/09/04 02:11:28;;;;;;;;;;;21.10;82.70;;;;;;5087282;28;19912;-51
2022/09/04 02:14:08;;;;;;;;;;;21.10;82.70;;;;;;5094971;28;19912;-56
2022/09/04 02:17:09;;;;;;;;;;;21.10;82.70;;;;;;5095108;28;19908;-55
2022/09/04 02:19:40;;;;;;;;;;;21.10;82.70;;;;;;5052330;28;19909;-54
2022/09/04 02:22:07;;;;;;;;;;;21.10;82.70;;;;;;5082680;28;19937;-53
2022/09/04 02:24:36;;;;;;;;;;;21.10;82.70;;;;;;5094844;28;19912;-56
2022/09/04 02:27:01;;;;;;;;;;;21.10;82.70;;;;;;5094817;28;19913;-54
2022/09/04 02:29:32;;;;;;;;;;;21.10;82.70;;;;;;5093380;28;19916;-55
2022/09/04 02:32:17;;;;;;;;;;;21.10;82.70;;;;;;5094727;28;20370;-53
2022/09/04 02:34:45;;;;;;;;;;;21.10;82.70;;;;;;5093325;28;19908;-56
2022/09/04 02:37:29;;;;;;;;;;;21.10;82.70;;;;;;5094644;28;19962;-55
2022/09/04 02:39:59;;;;;;;;;;;21.10;82.60;;;;;;5094327;28;19957;-52
2022/09/04 02:42:31;;;;;;;;;;;21.10;82.70;;;;;;5093250;28;19909;-52
2022/09/04 02:45:17;;;;;;;;;;;21.10;82.70;;;;;;5094005;28;19966;-56
2022/09/04 02:47:56;;;;;;;;;;;21.10;82.70;;;;;;5094052;28;19912;-56
2022/09/04 02:50:31;;;;;;;;;;;21.10;82.70;;;;;;5093847;28;20370;-56
2022/09/04 02:52:58;;;;;;;;;;;21.10;82.70;;;;;;5094222;28;19959;-55
2022/09/04 02:55:43;;;;;;;;;;;21.10;82.60;;;;;;5094212;28;19948;-54
2022/09/04 02:58:15;;;;;;;;;;;21.10;82.70;;;;;;5094271;28;19986;-50
2022/09/04 03:01:02;;;;;;;;;;;21.10;82.70;;;;;;5094068;28;19909;-55
2022/09/04 03:03:36;;;;;;;;;;;21.10;82.70;;;;;;5094513;28;19927;-54
2022/09/04 03:06:08;;;;;;;;;;;21.10;82.70;;;;;;5093960;28;19908;-54
2022/09/04 03:08:36;;;;;;;;;;;21.10;82.70;;;;;;5094204;28;19966;-50
2022/09/04 03:11:28;;;;;;;;;;;21.10;82.70;;;;;;5094477;28;19912;-54
2022/09/04 03:14:12;;;;;;;;;;;21.10;82.70;;;;;;5094197;28;19916;-53
2022/09/04 03:16:44;;;;;;;;;;;21.10;82.70;;;;;;5094092;28;20398;-52
2022/09/04 03:19:28;;;;;;;;;;;21.10;82.80;;;;;;5092780;28;19922;-54
2022/09/04 03:22:05;;;;;;;;;;;21.10;82.80;;;;;;5093783;28;20362;-54
2022/09/04 03:24:51;;;;;;;;;;;21.10;82.80;;;;;;5092773;28;19908;-53
2022/09/04 03:27:17;;;;;;;;;;;21.10;82.80;;;;;;5071970;28;19908;-54
2022/09/04 03:30:02;;;;;;;;;;;21.10;82.80;;;;;;5094295;28;19966;-54
2022/09/04 03:32:41;;;;;;;;;;;21.10;82.80;;;;;;5093683;28;19947;-55
2022/09/04 03:35:19;;;;;;;;;;;21.10;82.80;;;;;;5093944;28;20011;-55
2022/09/04 03:38:03;;;;;;;;;;;21.00;82.70;;;;;;5093633;28;19999;-56
2022/09/04 03:40:31;;;;;;;;;;;21.10;82.80;;;;;;5094006;28;19912;-56
2022/09/04 03:43:06;;;;;;;;;;;21.10;82.80;;;;;;5093881;28;19961;-55
2022/09/04 03:45:49;;;;;;;;;;;21.00;82.70;;;;;;5092651;28;20002;-52
2022/09/04 03:48:33;;;;;;;;;;;21.00;82.70;;;;;;5092497;28;19912;-51
2022/09/04 03:51:09;;;;;;;;;;;21.00;82.70;;;;;;5093843;28;20358;-55
2022/09/04 03:53:44;;;;;;;;;;;21.00;82.70;;;;;;5094106;28;19915;-54
2022/09/04 03:56:12;;;;;;;;;;;21.10;82.80;;;;;;5092801;28;19914;-53
2022/09/04 03:58:56;;;;;;;;;;;21.00;82.70;;;;;;5097543;28;19923;-53
2022/09/04 04:01:32;;;;;;;;;;;21.00;82.80;;;;;;5097165;28;19933;-54
2022/09/04 04:04:15;;;;;;;;;;;21.00;82.80;;;;;;5097582;28;19920;-53
2022/09/04 04:06:54;;;;;;;;;;;21.00;82.80;;;;;;5097469;28;19940;-55
2022/09/04 04:09:20;;;;;;;;;;;21.00;82.70;;;;;;5096113;28;20046;-52
2022/09/04 04:11:45;;;;;;;;;;;21.00;82.80;;;;;;5097149;28;19957;-53
2022/09/04 04:14:23;;;;;;;;;;;21.00;82.80;;;;;;5097280;28;19954;-54
2022/09/04 04:16:51;;;;;;;;;;;21.00;82.80;;;;;;5097351;28;19937;-55
2022/09/04 04:19:26;;;;;;;;;;;21.00;82.80;;;;;;5097273;28;19999;-51
2022/09/04 04:21:54;;;;;;;;;;;21.00;82.80;;;;;;5095884;28;19908;-56
2022/09/04 04:24:40;;;;;;;;;;;21.00;82.80;;;;;;5095803;28;19953;-51
2022/09/04 04:27:06;;;;;;;;;;;21.00;82.80;;;;;;5096864;28;19909;-55
2022/09/04 04:29:50;;;;;;;;;;;21.00;82.80;;;;;;5096948;28;19942;-55
2022/09/04 04:32:27;;;;;;;;;;;21.00;82.80;;;;;;5096906;28;19914;-51
2022/09/04 04:35:11;;;;;;;;;;;21.00;83.30;;;;;;5095533;28;19912;-53
2022/09/04 04:37:42;;;;;;;;;;;21.00;82.70;;;;;;5095590;28;20354;-53
2022/09/04 04:40:07;;;;;;;;;;;21.00;82.80;;;;;;5096800;28;19908;-53
2022/09/04 04:42:43;;;;;;;;;;;21.00;82.90;;;;;;5096665;28;19908;-50
2022/09/04 04:48:27;;;;;;;;;;;21.00;82.80;;;;;;5096530;28;20423;-55
2022/09/04 04:50:58;;;;;;;;;;;21.00;82.80;;;;;;5096586;28;19913;-53
2022/09/04 04:53:30;;;;;;;;;;;21.00;82.80;;;;;;5096217;28;19931;-53
2022/09/04 04:56:02;;;;;;;;;;;21.00;82.90;;;;;;5096554;28;19976;-50
2022/09/04 04:58:39;;;;;;;;;;;21.00;82.80;;;;;;5095143;28;20274;-54
2022/09/04 05:01:05;;;;;;;;;;;21.00;82.80;;;;;;5096095;28;20002;-54
2022/09/04 05:03:43;;;;;;;;;;;21.00;82.80;;;;;;5096613;28;20005;-53
2022/09/04 05:06:12;;;;;;;;;;;21.00;82.80;;;;;;5095994;28;19912;-53
2022/09/04 05:08:43;;;;;;;;;;;21.00;82.80;;;;;;5094798;28;20267;-53
2022/09/04 05:11:26;;;;;;;;;;;21.00;82.80;;;;;;5095838;28;19915;-50
2022/09/04 05:14:03;;;;;;;;;;;21.00;82.80;;;;;;5095714;28;19908;-54
2022/09/04 05:16:34;;;;;;;;;;;21.00;82.80;;;;;;5094695;28;20381;-53
2022/09/04 05:19:00;;;;;;;;;;;21.00;82.90;;;;;;5096074;28;19999;-52
2022/09/04 05:21:40;;;;;;;;;;;21.00;82.80;;;;;;5095623;28;19943;-55
2022/09/04 05:24:16;;;;;;;;;;;21.00;82.80;;;;;;5095735;28;20351;-53
2022/09/04 05:26:52;;;;;;;;;;;21.00;82.80;;;;;;5095496;28;19908;-53
2022/09/04 05:29:17;;;;;;;;;;;21.00;82.80;;;;;;5095700;28;19912;-53
2022/09/04 05:31:52;;;;;;;;;;;21.00;82.70;;;;;;5095750;28;19918;-52
2022/09/04 05:34:36;;;;;;;;;;;21.00;82.80;;;;;;5095943;28;19948;-53
2022/09/04 05:37:21;;;;;;;;;;;21.00;82.80;;;;;;5094339;28;19908;-55
2022/09/04 05:40:00;;;;;;;;;;;21.00;82.80;;;;;;5073552;28;19909;-51
2022/09/04 05:42:32;;;;;;;;;;;21.00;82.70;;;;;;5094362;28;19935;-54
2022/09/04 05:44:57;;;;;;;;;;;21.00;82.70;;;;;;5095514;28;19914;-55
2022/09/04 05:47:42;;;;;;;;;;;21.00;82.80;;;;;;5095349;28;20319;-53
2022/09/04 05:50:07;;;;;;;;;;;21.00;82.70;;;;;;5093848;28;19986;-52
2022/09/04 05:52:48;;;;;;;;;;;21.00;82.70;;;;;;5095008;28;19908;-52
2022/09/04 05:55:16;;;;;;;;;;;21.00;82.70;;;;;;5095373;28;20382;-50
2022/09/04 05:57:54;;;;;;;;;;;21.10;82.70;;;;;;5094938;28;19908;-55
2022/09/04 06:00:20;;;;;;;;;;;21.10;82.60;;;;;;5094805;28;20370;-55
2022/09/04 06:02:54;;;;;;;;;;;21.00;82.60;;;;;;5095119;28;19927;-51
2022/09/04 06:05:32;;;;;;;;;;;21.00;82.60;;;;;;5095051;28;20003;-51
2022/09/04 06:08:09;;;;;;;;;;;21.10;82.60;;;;;;5094782;28;19919;-52
2022/09/04 06:10:53;;;;;;;;;;;21.10;82.60;;;;;;5095141;28;20341;-51
2022/09/04 06:13:27;;;;;;;;;;;21.10;82.60;;;;;;5094812;28;20363;-53
2022/09/04 06:15:53;;;;;;;;;;;21.10;82.60;;;;;;5093428;28;19908;-52
2022/09/04 06:18:21;;;;;;;;;;;21.10;82.50;;;;;;5095118;28;20002;-55
2022/09/04 06:20:59;;;;;;;;;;;21.10;82.50;;;;;;5092801;28;19915;-54
2022/09/04 06:23:25;;;;;;;;;;;21.10;82.50;;;;;;5093520;28;19933;-55
2022/09/04 06:26:09;;;;;;;;;;;21.10;82.50;;;;;;5094496;28;19912;-51
2022/09/04 06:28:34;;;;;;;;;;;21.10;82.50;;;;;;5093072;28;19912;-53
2022/09/04 06:31:06;;;;;;;;;;;21.10;82.50;;;;;;5094551;28;19919;-55
2022/09/04 06:33:41;;;;;;;;;;;21.10;82.50;;;;;;5093560;28;20363;-52
2022/09/04 06:36:20;;;;;;;;;;;21.10;82.50;;;;;;5093260;28;19947;-54
2022/09/04 06:38:48;;;;;;;;;;;21.10;82.50;;;;;;5094302;28;19908;-51
2022/09/04 06:41:14;;;;;;;;;;;21.10;82.50;;;;;;5094080;28;19908;-53
2022/09/04 06:43:46;;;;;;;;;;;21.10;82.50;;;;;;5094364;28;20002;-52
2022/09/04 06:46:22;;;;;;;;;;;21.10;82.50;;;;;;5094737;28;19915;-51
2022/09/04 06:49:06;;;;;;;;;;;21.10;82.50;;;;;;5093853;28;19915;-55
2022/09/04 06:51:51;;;;;;;;;;;21.10;82.50;;;;;;5094631;28;19912;-53
2022/09/04 06:54:34;;;;;;;;;;;21.10;82.50;;;;;;5092931;28;19957;-54
2022/09/04 06:57:08;;;;;;;;;;;21.10;82.50;;;;;;5093951;28;19916;-52
2022/09/04 06:59:40;;;;;;;;;;;21.10;82.60;;;;;;5094225;28;19908;-54
2022/09/04 07:02:18;;;;;;;;;;;21.10;82.50;;;;;;5094119;28;19920;-53
2022/09/04 07:04:57;;;;;;;;;;;21.10;82.50;;;;;;5094233;28;19916;-53
2022/09/04 07:07:23;;;;;;;;;;;21.10;82.50;;;;;;5094327;28;19923;-56
2022/09/04 07:09:52;;;;;;;;;;;21.10;82.50;;;;;;5092729;28;19916;-50
2022/09/04 07:12:41;;;;;;;;;;;21.10;82.50;;;;;;5093972;28;19944;-53
2022/09/04 07:15:20;;;;;;;;;;;21.10;82.50;;;;;;5094009;28;19969;-53
2022/09/04 07:17:54;;;;;;;;;;;21.10;82.50;;;;;;5093757;28;19916;-50
2022/09/04 07:20:23;;;;;;;;;;;21.10;82.50;;;;;;5093867;28;19908;-53
2022/09/04 07:23:01;;;;;;;;;;;21.10;82.50;;;;;;5093956;28;19947;-54
2022/09/04 07:25:42;;;;;;;;;;;21.10;82.50;;;;;;5093865;28;19908;-53
2022/09/04 07:28:08;;;;;;;;;;;21.10;82.50;;;;;;5093768;28;19912;-50
2022/09/04 07:30:37;;;;;;;;;;;21.10;82.50;;;;;;5093216;28;19912;-54
2022/09/04 07:33:21;;;;;;;;;;;21.10;82.50;;;;;;5097654;28;19912;-53
2022/09/04 07:35:51;;;;;;;;;;;21.10;82.50;;;;;;5097910;28;19908;-53
2022/09/04 07:38:17;;;;;;;;;;;21.10;82.50;;;;;;5097612;28;19962;-54
2022/09/04 07:40:45;;;;;;;;;;;21.10;82.50;;;;;;5096458;28;19912;-53
2022/09/04 07:43:19;;;;;;;;;;;21.10;82.50;;;;;;5096410;28;19957;-53
2022/09/04 07:45:50;;;;;;;;;;;21.20;82.50;;;;;;5096661;28;19908;-51
2022/09/04 07:48:34;;;;;;;;;;;21.10;82.50;;;;;;5097314;28;20366;-52
2022/09/04 07:51:09;;;;;;;;;;;21.10;82.50;;;;;;5097739;28;19923;-52
2022/09/04 07:53:35;;;;;;;;;;;21.10;82.50;;;;;;5097639;28;19912;-53
2022/09/04 07:56:19;;;;;;;;;;;21.10;82.50;;;;;;5097537;28;19908;-49
2022/09/04 07:58:44;;;;;;;;;;;21.10;82.50;;;;;;5097380;28;19948;-55
2022/09/04 08:01:13;;;;;;;;;;;21.10;83.00;;;;;;5097335;28;19908;-54
2022/09/04 08:03:49;;;;;;;;;;;21.10;82.50;;;;;;5097308;28;19920;-54
2022/09/04 08:06:20;;;;;;;;;;;21.10;82.50;;;;;;5097304;28;19915;-53
2022/09/04 08:08:58;;;;;;;;;;;21.10;83.00;;;;;;5095707;28;19912;-51
2022/09/04 08:11:44;;;;;;;;;;;21.10;82.50;;;;;;5097232;28;19912;-53
2022/09/04 08:14:28;;;;;;;;;;;21.10;82.50;;;;;;5096835;28;20057;-54
2022/09/04 08:16:55;;;;;;;;;;;21.20;82.50;;;;;;5097237;28;19909;-49
2022/09/04 08:19:23;;;;;;;;;;;21.10;82.50;;;;;;5097087;28;19914;-50
2022/09/04 08:21:51;;;;;;;;;;;21.10;82.50;;;;;;5096929;28;19918;-55
2022/09/04 08:24:16;;;;;;;;;;;21.10;82.50;;;;;;5096850;28;19920;-54
2022/09/04 08:27:01;;;;;;;;;;;21.20;82.50;;;;;;5096900;28;20366;-54
2022/09/04 08:29:56;;;;;;;;;;;21.10;82.50;;;;;;5096772;28;19916;-53
2022/09/04 08:32:51;;;;;;;;;;;21.20;82.50;;;;;;5087484;28;20354;-52
2022/09/04 08:35:31;;;;;;;;;;;21.10;82.50;;;;;;5096374;28;20367;-54
2022/09/04 08:37:57;;;;;;;;;;;21.10;82.50;;;;;;5095336;28;19950;-49
2022/09/04 08:40:41;;;;;;;;;;;21.10;82.50;;;;;;5096281;28;19909;-55
2022/09/04 08:43:25;;;;;;;;;;;21.10;82.50;;;;;;5094615;28;20380;-54
2022/09/04 08:45:51;;;;;;;;;;;21.10;82.50;;;;;;5096549;28;19908;-53
2022/09/04 08:48:35;;;;;;;;;;;21.20;82.50;;;;;;5096458;28;19912;-55
2022/09/04 08:51:01;;;;;;;;;;;21.20;82.50;;;;;;5095215;28;19916;-54
2022/09/04 08:53:35;;;;;;;;;;;21.20;82.50;;;;;;5096750;28;19962;-53
2022/09/04 08:56:20;;;;;;;;;;;21.20;82.50;;;;;;5094984;28;19908;-55
2022/09/04 08:58:51;;;;;;;;;;;21.20;82.50;;;;;;5096043;28;19934;-55
2022/09/04 09:01:17;;;;;;;;;;;21.20;82.50;;;;;;5096114;28;19908;-52
2022/09/04 09:03:51;;;;;;;;;;;21.20;82.50;;;;;;5094508;28;19927;-51
2022/09/04 09:06:29;;;;;;;;;;;21.20;82.50;;;;;;5095925;28;19909;-54
2022/09/04 09:09:13;;;;;;;;;;;21.20;82.50;;;;;;5095884;28;20374;-52
2022/09/04 09:11:54;;;;;;;;;;;21.20;82.50;;;;;;5095869;28;19920;-51
2022/09/04 09:14:37;;;;;;;;;;;21.20;82.50;;;;;;5095986;28;19919;-54
2022/09/04 09:17:13;;;;;;;;;;;21.20;82.50;;;;;;5095553;28;19908;-54
2022/09/04 09:19:48;;;;;;;;;;;21.20;82.50;;;;;;5094419;28;20359;-54
2022/09/04 09:22:22;;;;;;;;;;;21.20;82.50;;;;;;5095503;28;19970;-52
2022/09/04 09:25:11;;;;;;;;;;;21.20;82.50;;;;;;5095557;28;19912;-52
2022/09/04 09:28:06;;;;;;;;;;;21.20;82.50;;;;;;5095329;28;19908;-51
2022/09/04 09:30:55;;;;;;;;;;;21.20;82.50;;;;;;5094147;28;20394;-54
2022/09/04 09:33:39;;;;;;;;;;;21.20;82.50;;;;;;5092921;28;20019;-52
2022/09/04 09:36:23;;;;;;;;;;;21.20;82.50;;;;;;5094335;28;19947;-52
2022/09/04 09:38:49;;;;;;;;;;;21.20;82.50;;;;;;5095231;28;19960;-53
2022/09/04 09:41:33;;;;;;;;;;;21.20;82.50;;;;;;5095026;28;19915;-51
2022/09/04 09:44:11;;;;;;;;;;;21.20;82.40;;;;;;5095457;28;19934;-52
2022/09/04 09:46:57;;;;;;;;;;;21.20;82.50;;;;;;5095228;28;19948;-52
2022/09/04 09:49:37;;;;;;;;;;;21.20;82.50;;;;;;5095031;28;19912;-53
2022/09/04 09:52:14;;;;;;;;;;;21.20;82.40;;;;;;5094878;28;20312;-55
2022/09/04 09:54:57;;;;;;;;;;;21.20;82.50;;;;;;5093993;28;19918;-52
2022/09/04 09:57:37;;;;;;;;;;;21.20;82.50;;;;;;5094844;28;20370;-52
2022/09/04 10:00:16;;;;;;;;;;;21.20;82.50;;;;;;5093656;28;19908;-53
2022/09/04 10:03:00;;;;;;;;;;;21.20;82.50;;;;;;5094424;28;20014;-52
2022/09/04 10:05:53;;;;;;;;;;;21.20;82.50;;;;;;5094952;28;19908;-53
2022/09/04 10:08:50;;;;;;;;;;;21.20;82.50;;;;;;5094892;28;20019;-54
2022/09/04 10:11:35;;;;;;;;;;;21.20;82.50;;;;;;5071387;28;19911;-53
2022/09/04 10:14:00;;;;;;;;;;;21.20;82.50;;;;;;5094603;28;19908;-51
2022/09/04 10:16:45;;;;;;;;;;;21.20;82.50;;;;;;5093525;28;19908;-51
2022/09/04 10:19:15;;;;;;;;;;;21.20;82.50;;;;;;5094531;28;19908;-53
2022/09/04 10:21:59;;;;;;;;;;;21.30;82.60;;;;;;5093286;28;19912;-52
2022/09/04 10:24:34;;;;;;;;;;;21.20;82.50;;;;;;5094095;28;19931;-55
2022/09/04 10:27:20;;;;;;;;;;;21.20;82.50;;;;;;5094533;28;19912;-53
2022/09/04 10:30:02;;;;;;;;;;;21.20;82.50;;;;;;5094460;28;19916;-49
2022/09/04 10:32:31;;;;;;;;;;;21.30;82.60;;;;;;5094297;28;19919;-53
2022/09/04 10:35:16;;;;;;;;;;;21.20;82.50;;;;;;5094836;28;19908;-55
2022/09/04 10:37:56;;;;;;;;;;;21.20;82.50;;;;;;5094528;28;20408;-53
2022/09/04 10:40:42;;;;;;;;;;;21.20;82.50;;;;;;5094260;28;20196;-51
2022/09/04 10:43:09;;;;;;;;;;;21.20;82.50;;;;;;5094247;28;19915;-54
2022/09/04 10:45:43;;;;;;;;;;;21.20;82.50;;;;;;5094253;28;19973;-54
2022/09/04 10:48:27;;;;;;;;;;;21.20;82.50;;;;;;5093780;28;19957;-54
2022/09/04 10:51:01;;;;;;;;;;;21.20;82.50;;;;;;5093842;28;20342;-56
2022/09/04 10:53:51;;;;;;;;;;;21.20;82.50;;;;;;5093802;28;19916;-50
2022/09/04 10:56:55;;;;;;;;;;;21.20;82.50;;;;;;5094197;28;20002;-55
2022/09/04 10:59:29;;;;;;;;;;;21.20;82.50;;;;;;5051318;28;19913;-56
2022/09/04 11:02:13;;;;;;;;;;;21.20;82.50;;;;;;5034404;28;20326;-55
2022/09/04 11:04:58;;;;;;;;;;;21.20;82.50;;;;;;5079109;28;19912;-53
2022/09/04 11:07:42;;;;;;;;;;;21.20;82.50;;;;;;5093612;28;20256;-53
2022/09/04 11:10:17;;;;;;;;;;;21.30;82.60;;;;;;5094107;28;19916;-55
2022/09/04 11:12:48;;;;;;;;;;;21.30;82.60;;;;;;5093862;28;19908;-55
2022/09/04 11:15:36;;;;;;;;;;;21.20;82.50;;;;;;5093777;28;19991;-53
2022/09/04 11:18:08;;;;;;;;;;;21.20;82.50;;;;;;5093455;28;19908;-56
2022/09/04 11:20:50;;;;;;;;;;;21.30;82.60;;;;;;5093677;28;20282;-52
2022/09/04 11:23:34;;;;;;;;;;;21.30;82.60;;;;;;5093842;28;20420;-57
2022/09/04 11:26:22;;;;;;;;;;;21.20;82.50;;;;;;5093513;28;20006;-55
2022/09/04 11:28:54;;;;;;;;;;;21.30;82.60;;;;;;5092483;28;19912;-54
2022/09/04 11:31:20;;;;;;;;;;;21.30;82.60;;;;;;5093534;28;19965;-56
2022/09/04 11:33:57;;;;;;;;;;;21.20;82.50;;;;;;5093268;28;20309;-53
2022/09/04 11:36:26;;;;;;;;;;;21.20;82.50;;;;;;5093371;28;20446;-54
2022/09/04 11:39:01;;;;;;;;;;;21.30;82.50;;;;;;5093859;28;20354;-53
2022/09/04 11:41:34;;;;;;;;;;;21.30;82.50;;;;;;5092482;28;19909;-54
2022/09/04 11:44:00;;;;;;;;;;;21.30;82.50;;;;;;5093508;28;19953;-54
2022/09/04 11:46:46;;;;;;;;;;;21.30;82.50;;;;;;5092399;28;19908;-55
2022/09/04 11:49:15;;;;;;;;;;;21.30;82.50;;;;;;5092235;28;19919;-53
2022/09/04 11:51:53;;;;;;;;;;;21.20;82.50;;;;;;5093656;28;19974;-52
2022/09/04 11:54:25;;;;;;;;;;;21.30;82.50;;;;;;5093398;28;19924;-56
2022/09/04 11:56:53;;;;;;;;;;;21.30;82.50;;;;;;5093528;28;20007;-54
2022/09/04 11:59:25;;;;;;;;;;;21.30;82.50;;;;;;5092182;28;19908;-55
2022/09/04 12:01:53;;;;;;;;;;;21.30;82.50;;;;;;5093044;28;19953;-52
2022/09/04 12:04:21;;;;;;;;;;;21.30;82.50;;;;;;5092257;28;19908;-54
2022/09/04 12:07:00;;;;;;;;;;;21.30;82.50;;;;;;5093355;28;19934;-56
2022/09/04 12:09:39;;;;;;;;;;;21.30;82.50;;;;;;5092326;28;19919;-55
2022/09/04 12:12:11;;;;;;;;;;;21.30;82.50;;;;;;5092264;28;19959;-56
2022/09/04 12:14:55;;;;;;;;;;;21.30;82.50;;;;;;5093372;28;19936;-54
2022/09/04 12:17:30;;;;;;;;;;;21.30;82.50;;;;;;5093745;28;19994;-51
2022/09/04 12:20:03;;;;;;;;;;;21.30;82.50;;;;;;5096773;28;20252;-53
2022/09/04 12:22:50;;;;;;;;;;;21.30;82.50;;;;;;5095739;28;20343;-54
2022/09/04 12:25:19;;;;;;;;;;;21.30;82.50;;;;;;5097032;28;20003;-54
2022/09/04 12:27:44;;;;;;;;;;;21.30;82.50;;;;;;5097067;28;19944;-55
2022/09/04 12:30:22;;;;;;;;;;;21.30;82.50;;;;;;5095733;28;19955;-54
2022/09/04 12:32:47;;;;;;;;;;;21.30;82.50;;;;;;5096696;28;19915;-52
2022/09/04 12:35:19;;;;;;;;;;;21.30;82.50;;;;;;5096282;28;19908;-54
2022/09/04 12:37:50;;;;;;;;;;;21.30;82.50;;;;;;5096305;28;19908;-55
2022/09/04 12:40:51;;;;;;;;;;;21.30;82.50;;;;;;5096271;28;19953;-54
2022/09/04 12:43:40;;;;;;;;;;;21.30;82.50;;;;;;5054029;28;19995;-56
2022/09/04 12:46:09;;;;;;;;;;;21.30;82.50;;;;;;5094526;28;19908;-53
2022/09/04 12:48:35;;;;;;;;;;;21.30;82.50;;;;;;5096592;28;20370;-56
2022/09/04 12:51:15;;;;;;;;;;;21.30;82.50;;;;;;5096343;28;19912;-52
2022/09/04 12:53:43;;;;;;;;;;;21.30;82.50;;;;;;5096015;28;19929;-55
2022/09/04 12:56:14;;;;;;;;;;;21.30;82.50;;;;;;5096335;28;19908;-53
2022/09/04 12:58:51;;;;;;;;;;;21.30;82.50;;;;;;5096274;28;19915;-52
2022/09/04 13:01:27;;;;;;;;;;;21.30;82.50;;;;;;5096366;28;19908;-53
2022/09/04 13:03:58;;;;;;;;;;;21.30;82.50;;;;;;5094691;28;19973;-52
2022/09/04 13:06:36;;;;;;;;;;;21.30;82.50;;;;;;5095884;28;19915;-53
2022/09/04 13:09:28;;;;;;;;;;;21.30;82.50;;;;;;5096073;28;20385;-54
2022/09/04 13:12:02;;;;;;;;;;;21.30;82.50;;;;;;5071315;28;19919;-51
2022/09/04 13:14:41;;;;;;;;;;;21.30;83.00;;;;;;5094728;28;19908;-55
2022/09/04 13:17:19;;;;;;;;;;;21.30;82.50;;;;;;5095929;28;19908;-55
2022/09/04 13:19:53;;;;;;;;;;;21.30;82.50;;;;;;5095645;28;19940;-55
2022/09/04 13:22:19;;;;;;;;;;;21.30;82.50;;;;;;5095769;28;20319;-53
2022/09/04 13:24:58;;;;;;;;;;;21.30;82.50;;;;;;5095785;28;19939;-53
2022/09/04 13:27:45;;;;;;;;;;;21.30;82.50;;;;;;5095725;28;19912;-55
2022/09/04 13:30:20;;;;;;;;;;;21.30;82.50;;;;;;5093972;28;20255;-56
2022/09/04 13:32:55;;;;;;;;;;;21.30;82.50;;;;;;5094091;28;19909;-54
2022/09/04 13:35:20;;;;;;;;;;;21.30;82.50;;;;;;5095658;28;19908;-54
2022/09/04 13:37:47;;;;;;;;;;;21.30;82.50;;;;;;5095574;28;19914;-52
2022/09/04 13:40:15;;;;;;;;;;;21.30;82.50;;;;;;5095668;28;20003;-55
2022/09/04 13:42:54;;;;;;;;;;;21.30;82.50;;;;;;5095377;28;19955;-56
2022/09/04 13:45:22;;;;;;;;;;;21.30;82.40;;;;;;5095913;28;19912;-53
2022/09/04 13:47:48;;;;;;;;;;;21.30;82.40;;;;;;5094993;28;19999;-57
2022/09/04 13:50:21;;;;;;;;;;;21.30;82.40;;;;;;5095242;28;19912;-53
2022/09/04 13:52:54;;;;;;;;;;;21.30;82.40;;;;;;5095307;28;19908;-54
2022/09/04 13:55:22;;;;;;;;;;;21.30;82.40;;;;;;5094794;28;19943;-56
2022/09/04 13:58:09;;;;;;;;;;;21.30;82.40;;;;;;5095029;28;20263;-53
2022/09/04 14:00:38;;;;;;;;;;;21.30;82.40;;;;;;5093446;28;19908;-53
2022/09/04 14:03:07;;;;;;;;;;;21.30;82.40;;;;;;5095090;28;19920;-53
2022/09/04 14:05:36;;;;;;;;;;;21.30;82.40;;;;;;5095277;28;19908;-55
2022/09/04 14:08:07;;;;;;;;;;;21.30;82.40;;;;;;5093764;28;19912;-52
2022/09/04 14:10:36;;;;;;;;;;;21.30;82.40;;;;;;5094772;28;19999;-54
2022/09/04 14:13:21;;;;;;;;;;;21.30;82.40;;;;;;5094637;28;19915;-52
2022/09/04 14:16:00;;;;;;;;;;;21.30;82.40;;;;;;5094591;28;19908;-50
2022/09/04 14:18:45;;;;;;;;;;;21.30;82.40;;;;;;5093556;28;20396;-55
2022/09/04 14:21:30;;;;;;;;;;;21.30;82.40;;;;;;5094446;28;19978;-54
2022/09/04 14:23:55;;;;;;;;;;;21.30;82.40;;;;;;5094476;28;20428;-56
2022/09/04 14:26:30;;;;;;;;;;;21.30;82.40;;;;;;5094499;28;19908;-56
2022/09/04 14:29:14;;;;;;;;;;;21.30;82.40;;;;;;5093371;28;19912;-54
2022/09/04 14:31:46;;;;;;;;;;;21.30;82.40;;;;;;5094362;28;19991;-55
2022/09/04 14:34:27;;;;;;;;;;;21.30;82.40;;;;;;5094245;28;19908;-54
2022/09/04 14:36:57;;;;;;;;;;;21.30;82.40;;;;;;5094508;28;19927;-51
2022/09/04 14:39:42;;;;;;;;;;;21.30;82.40;;;;;;5093430;28;20320;-53
2022/09/04 14:42:11;;;;;;;;;;;21.30;82.40;;;;;;5092677;28;19908;-54
2022/09/04 14:44:42;;;;;;;;;;;21.30;82.40;;;;;;5093798;28;19909;-54
2022/09/04 14:47:24;;;;;;;;;;;21.30;82.40;;;;;;5094417;28;19922;-51
2022/09/04 14:49:52;;;;;;;;;;;21.30;82.40;;;;;;5094136;28;20313;-54
2022/09/04 14:52:20;;;;;;;;;;;21.30;82.40;;;;;;5094239;28;19951;-54
2022/09/04 14:54:49;;;;;;;;;;;21.30;82.40;;;;;;5092761;28;19908;-53
2022/09/04 14:57:25;;;;;;;;;;;21.30;82.40;;;;;;5093904;28;19908;-53
2022/09/04 15:00:03;;;;;;;;;;;21.30;82.40;;;;;;5094164;28;20278;-52
2022/09/04 15:02:43;;;;;;;;;;;21.30;82.40;;;;;;5093534;28;19973;-53
2022/09/04 15:05:15;;;;;;;;;;;21.30;82.40;;;;;;5093034;28;20271;-54
2022/09/04 15:07:40;;;;;;;;;;;21.30;82.30;;;;;;5094067;28;19909;-54
2022/09/04 15:10:09;;;;;;;;;;;21.30;82.40;;;;;;5094021;28;19935;-55